sensor_id;sensor_type;location;lat;lon;timestamp;P1;durP1;ratioP1;P2;durP2;ratioP2
16403;SDS011;8311;50.158;8.642;2023-02-03T00:02:48;6.32;;;1.65;;
16403;SDS011;8311;50.158;8.642;2023-02-03T00:05:41;4.55;;;2.10;;
16403;SDS011;8311;50.158;8.642;2023-02-03T00:08:37;4.60;;;1.95;;
16403;SDS011;8311;50.158;8.642;2023-02-03T00:11:31;5.25;;;1.70;;
16403;SDS011;8311;50.158;8.642;2023-02-03T00:14:24;4.57;;;1.70;;
16403;SDS011;8311;50.158;8.642;2023-02-03T00:17:17;3.70;;;1.50;;
16403;SDS011;8311;50.158;8.642;2023-02-03T00:20:10;4.80;;;1.80;;
16403;SDS011;8311;50.158;8.642;2023-02-03T00:23:04;5.20;;;1.65;;
16403;SDS011;8311;50.158;8.642;2023-02-03T00:25:59;4.90;;;1.80;;
16403;SDS011;8311;50.158;8.642;2023-02-03T00:28:59;5.95;;;1.95;;
16403;SDS011;8311;50.158;8.642;2023-02-03T00:31:51;4.85;;;1.60;;
16403;SDS011;8311;50.158;8.642;2023-02-03T00:34:45;7.47;;;1.92;;
16403;SDS011;8311;50.158;8.642;2023-02-03T00:37:38;5.38;;;1.70;;
16403;SDS011;8311;50.158;8.642;2023-02-03T00:40:31;4.85;;;1.52;;
16403;SDS011;8311;50.158;8.642;2023-02-03T00:43:26;6.32;;;1.48;;
16403;SDS011;8311;50.158;8.642;2023-02-03T00:46:19;7.60;;;1.65;;
16403;SDS011;8311;50.158;8.642;2023-02-03T00:49:12;4.78;;;1.40;;
16403;SDS011;8311;50.158;8.642;2023-02-03T00:52:05;3.97;;;1.70;;
16403;SDS011;8311;50.158;8.642;2023-02-03T00:54:58;3.88;;;1.58;;
16403;SDS011;8311;50.158;8.642;2023-02-03T00:57:52;4.65;;;1.60;;
16403;SDS011;8311;50.158;8.642;2023-02-03T01:00:46;3.30;;;1.70;;
16403;SDS011;8311;50.158;8.642;2023-02-03T01:03:39;4.22;;;1.70;;
16403;SDS011;8311;50.158;8.642;2023-02-03T01:06:32;3.65;;;1.55;;
16403;SDS011;8311;50.158;8.642;2023-02-03T01:09:25;3.35;;;1.30;;
16403;SDS011;8311;50.158;8.642;2023-02-03T01:12:18;4.43;;;1.55;;
16403;SDS011;8311;50.158;8.642;2023-02-03T01:15:11;6.75;;;2.05;;
16403;SDS011;8311;50.158;8.642;2023-02-03T01:18:06;5.00;;;1.50;;
16403;SDS011;8311;50.158;8.642;2023-02-03T01:21:03;4.30;;;1.48;;
16403;SDS011;8311;50.158;8.642;2023-02-03T01:23:57;3.92;;;1.13;;
16403;SDS011;8311;50.158;8.642;2023-02-03T01:26:50;2.95;;;1.40;;
16403;SDS011;8311;50.158;8.642;2023-02-03T01:29:43;4.65;;;1.55;;
16403;SDS011;8311;50.158;8.642;2023-02-03T01:32:36;5.22;;;1.38;;
16403;SDS011;8311;50.158;8.642;2023-02-03T01:35:32;5.28;;;1.58;;
16403;SDS011;8311;50.158;8.642;2023-02-03T01:38:26;3.53;;;1.27;;
16403;SDS011;8311;50.158;8.642;2023-02-03T01:41:20;3.63;;;1.02;;
16403;SDS011;8311;50.158;8.642;2023-02-03T01:44:33;5.38;;;1.42;;
16403;SDS011;8311;50.158;8.642;2023-02-03T01:47:31;3.45;;;1.50;;
16403;SDS011;8311;50.158;8.642;2023-02-03T01:50:29;2.97;;;1.27;;
16403;SDS011;8311;50.158;8.642;2023-02-03T01:53:25;4.10;;;1.25;;
16403;SDS011;8311;50.158;8.642;2023-02-03T01:56:19;4.43;;;1.60;;
16403;SDS011;8311;50.158;8.642;2023-02-03T01:59:12;3.28;;;1.55;;
16403;SDS011;8311;50.158;8.642;2023-02-03T02:02:10;3.65;;;1.45;;
16403;SDS011;8311;50.158;8.642;2023-02-03T02:05:05;4.88;;;1.70;;
16403;SDS011;8311;50.158;8.642;2023-02-03T02:08:05;2.90;;;1.00;;
16403;SDS011;8311;50.158;8.642;2023-02-03T02:11:00;6.15;;;1.67;;
16403;SDS011;8311;50.158;8.642;2023-02-03T02:13:56;4.13;;;1.40;;
16403;SDS011;8311;50.158;8.642;2023-02-03T02:16:52;4.53;;;1.30;;
16403;SDS011;8311;50.158;8.642;2023-02-03T02:20:00;2.90;;;1.20;;
16403;SDS011;8311;50.158;8.642;2023-02-03T02:26:52;3.55;;;1.35;;
16403;SDS011;8311;50.158;8.642;2023-02-03T02:30:17;1.73;;;1.30;;
16403;SDS011;8311;50.158;8.642;2023-02-03T02:33:35;2.85;;;1.20;;
16403;SDS011;8311;50.158;8.642;2023-02-03T02:36:34;1.95;;;1.00;;
16403;SDS011;8311;50.158;8.642;2023-02-03T02:39:38;2.40;;;1.10;;
16403;SDS011;8311;50.158;8.642;2023-02-03T02:42:38;3.47;;;1.15;;
16403;SDS011;8311;50.158;8.642;2023-02-03T02:45:40;1.75;;;0.98;;
16403;SDS011;8311;50.158;8.642;2023-02-03T02:48:39;3.00;;;1.40;;
16403;SDS011;8311;50.158;8.642;2023-02-03T02:51:38;3.15;;;1.10;;
16403;SDS011;8311;50.158;8.642;2023-02-03T02:54:34;1.98;;;0.98;;
16403;SDS011;8311;50.158;8.642;2023-02-03T02:57:30;2.78;;;0.90;;
16403;SDS011;8311;50.158;8.642;2023-02-03T03:00:28;2.63;;;1.05;;
16403;SDS011;8311;50.158;8.642;2023-02-03T03:03:22;3.53;;;1.00;;
16403;SDS011;8311;50.158;8.642;2023-02-03T03:06:19;2.33;;;1.10;;
16403;SDS011;8311;50.158;8.642;2023-02-03T03:09:17;1.38;;;0.75;;
16403;SDS011;8311;50.158;8.642;2023-02-03T03:12:15;1.35;;;0.90;;
16403;SDS011;8311;50.158;8.642;2023-02-03T03:15:13;1.40;;;0.80;;
16403;SDS011;8311;50.158;8.642;2023-02-03T03:18:12;2.33;;;0.95;;
16403;SDS011;8311;50.158;8.642;2023-02-03T03:21:08;1.42;;;0.80;;
16403;SDS011;8311;50.158;8.642;2023-02-03T03:24:08;2.28;;;0.77;;
16403;SDS011;8311;50.158;8.642;2023-02-03T03:27:04;1.55;;;0.85;;
16403;SDS011;8311;50.158;8.642;2023-02-03T03:30:04;2.00;;;0.90;;
16403;SDS011;8311;50.158;8.642;2023-02-03T03:32:59;2.38;;;0.90;;
16403;SDS011;8311;50.158;8.642;2023-02-03T03:35:53;1.48;;;0.70;;
16403;SDS011;8311;50.158;8.642;2023-02-03T03:38:52;1.35;;;0.63;;
16403;SDS011;8311;50.158;8.642;2023-02-03T03:41:52;1.40;;;0.73;;
16403;SDS011;8311;50.158;8.642;2023-02-03T03:44:50;2.00;;;0.80;;
16403;SDS011;8311;50.158;8.642;2023-02-03T03:47:50;1.50;;;0.70;;
16403;SDS011;8311;50.158;8.642;2023-02-03T03:50:49;1.60;;;0.88;;
16403;SDS011;8311;50.158;8.642;2023-02-03T03:53:44;1.88;;;0.90;;
16403;SDS011;8311;50.158;8.642;2023-02-03T03:56:44;2.20;;;1.00;;
16403;SDS011;8311;50.158;8.642;2023-02-03T03:59:43;1.23;;;0.73;;
16403;SDS011;8311;50.158;8.642;2023-02-03T04:02:39;1.65;;;1.00;;
16403;SDS011;8311;50.158;8.642;2023-02-03T04:05:38;2.15;;;1.10;;
16403;SDS011;8311;50.158;8.642;2023-02-03T04:08:31;2.10;;;0.77;;
16403;SDS011;8311;50.158;8.642;2023-02-03T04:11:25;1.80;;;0.90;;
16403;SDS011;8311;50.158;8.642;2023-02-03T04:14:35;2.30;;;0.82;;
16403;SDS011;8311;50.158;8.642;2023-02-03T04:17:31;1.25;;;0.70;;
16403;SDS011;8311;50.158;8.642;2023-02-03T04:20:27;2.22;;;1.00;;
16403;SDS011;8311;50.158;8.642;2023-02-03T04:23:20;1.13;;;0.77;;
16403;SDS011;8311;50.158;8.642;2023-02-03T04:26:13;2.47;;;0.57;;
16403;SDS011;8311;50.158;8.642;2023-02-03T04:29:07;1.30;;;0.70;;
16403;SDS011;8311;50.158;8.642;2023-02-03T04:32:00;1.67;;;0.88;;
16403;SDS011;8311;50.158;8.642;2023-02-03T04:34:55;1.65;;;0.63;;
16403;SDS011;8311;50.158;8.642;2023-02-03T04:37:48;2.30;;;0.88;;
16403;SDS011;8311;50.158;8.642;2023-02-03T04:40:42;1.33;;;0.90;;
16403;SDS011;8311;50.158;8.642;2023-02-03T04:43:35;1.50;;;0.77;;
16403;SDS011;8311;50.158;8.642;2023-02-03T04:46:29;1.95;;;0.93;;
16403;SDS011;8311;50.158;8.642;2023-02-03T04:49:21;1.63;;;0.70;;
16403;SDS011;8311;50.158;8.642;2023-02-03T04:52:16;2.30;;;0.57;;
16403;SDS011;8311;50.158;8.642;2023-02-03T04:55:10;2.40;;;0.95;;
16403;SDS011;8311;50.158;8.642;2023-02-03T04:58:03;1.73;;;0.80;;
16403;SDS011;8311;50.158;8.642;2023-02-03T05:00:55;1.42;;;0.80;;
16403;SDS011;8311;50.158;8.642;2023-02-03T05:03:48;1.80;;;1.00;;
16403;SDS011;8311;50.158;8.642;2023-02-03T05:06:43;1.85;;;0.80;;
16403;SDS011;8311;50.158;8.642;2023-02-03T05:09:38;3.33;;;0.65;;
16403;SDS011;8311;50.158;8.642;2023-02-03T05:12:31;2.13;;;1.00;;
16403;SDS011;8311;50.158;8.642;2023-02-03T05:15:24;4.15;;;0.85;;
16403;SDS011;8311;50.158;8.642;2023-02-03T05:18:16;1.30;;;0.90;;
16403;SDS011;8311;50.158;8.642;2023-02-03T05:21:10;2.83;;;1.17;;
16403;SDS011;8311;50.158;8.642;2023-02-03T05:24:04;2.13;;;0.80;;
16403;SDS011;8311;50.158;8.642;2023-02-03T05:26:59;2.38;;;0.80;;
16403;SDS011;8311;50.158;8.642;2023-02-03T05:29:53;4.72;;;1.30;;
16403;SDS011;8311;50.158;8.642;2023-02-03T05:32:45;2.83;;;1.00;;
16403;SDS011;8311;50.158;8.642;2023-02-03T05:35:40;3.42;;;1.27;;
16403;SDS011;8311;50.158;8.642;2023-02-03T05:38:32;2.63;;;0.98;;
16403;SDS011;8311;50.158;8.642;2023-02-03T05:41:26;3.50;;;1.00;;
16403;SDS011;8311;50.158;8.642;2023-02-03T05:44:38;2.55;;;1.02;;
16403;SDS011;8311;50.158;8.642;2023-02-03T05:47:31;1.98;;;1.17;;
16403;SDS011;8311;50.158;8.642;2023-02-03T05:50:24;1.25;;;0.75;;
16403;SDS011;8311;50.158;8.642;2023-02-03T05:53:20;2.80;;;0.80;;
16403;SDS011;8311;50.158;8.642;2023-02-03T05:56:14;3.22;;;0.80;;
16403;SDS011;8311;50.158;8.642;2023-02-03T05:59:08;2.42;;;0.90;;
16403;SDS011;8311;50.158;8.642;2023-02-03T06:02:03;3.55;;;0.82;;
16403;SDS011;8311;50.158;8.642;2023-02-03T06:04:56;1.77;;;0.90;;
16403;SDS011;8311;50.158;8.642;2023-02-03T06:07:49;2.72;;;0.80;;
16403;SDS011;8311;50.158;8.642;2023-02-03T06:10:43;3.10;;;1.15;;
16403;SDS011;8311;50.158;8.642;2023-02-03T06:13:36;2.80;;;1.00;;
16403;SDS011;8311;50.158;8.642;2023-02-03T06:16:30;4.47;;;1.05;;
16403;SDS011;8311;50.158;8.642;2023-02-03T06:19:24;3.60;;;0.82;;
16403;SDS011;8311;50.158;8.642;2023-02-03T06:22:17;1.45;;;0.90;;
16403;SDS011;8311;50.158;8.642;2023-02-03T06:25:09;2.38;;;1.02;;
16403;SDS011;8311;50.158;8.642;2023-02-03T06:28:04;1.65;;;0.95;;
16403;SDS011;8311;50.158;8.642;2023-02-03T06:30:58;2.90;;;1.27;;
16403;SDS011;8311;50.158;8.642;2023-02-03T06:33:50;2.45;;;0.90;;
16403;SDS011;8311;50.158;8.642;2023-02-03T06:36:45;3.45;;;1.15;;
16403;SDS011;8311;50.158;8.642;2023-02-03T06:39:38;3.22;;;1.10;;
16403;SDS011;8311;50.158;8.642;2023-02-03T06:42:32;2.53;;;1.08;;
16403;SDS011;8311;50.158;8.642;2023-02-03T06:45:24;2.22;;;0.95;;
16403;SDS011;8311;50.158;8.642;2023-02-03T06:48:18;2.38;;;1.08;;
16403;SDS011;8311;50.158;8.642;2023-02-03T06:51:11;2.70;;;1.23;;
16403;SDS011;8311;50.158;8.642;2023-02-03T06:54:05;2.55;;;1.10;;
16403;SDS011;8311;50.158;8.642;2023-02-03T06:56:59;3.50;;;1.20;;
16403;SDS011;8311;50.158;8.642;2023-02-03T06:59:52;1.80;;;1.05;;
16403;SDS011;8311;50.158;8.642;2023-02-03T07:02:45;2.72;;;1.05;;
16403;SDS011;8311;50.158;8.642;2023-02-03T07:05:44;2.70;;;1.00;;
16403;SDS011;8311;50.158;8.642;2023-02-03T07:08:38;2.38;;;0.85;;
16403;SDS011;8311;50.158;8.642;2023-02-03T07:11:33;2.72;;;1.00;;
16403;SDS011;8311;50.158;8.642;2023-02-03T07:14:27;3.10;;;1.25;;
16403;SDS011;8311;50.158;8.642;2023-02-03T07:17:21;3.85;;;1.05;;
16403;SDS011;8311;50.158;8.642;2023-02-03T07:20:14;1.75;;;0.90;;
16403;SDS011;8311;50.158;8.642;2023-02-03T07:23:07;2.03;;;0.88;;
16403;SDS011;8311;50.158;8.642;2023-02-03T07:26:01;1.95;;;1.00;;
16403;SDS011;8311;50.158;8.642;2023-02-03T07:28:57;2.22;;;1.08;;
16403;SDS011;8311;50.158;8.642;2023-02-03T07:31:51;1.70;;;1.00;;
16403;SDS011;8311;50.158;8.642;2023-02-03T07:34:44;1.63;;;1.10;;
16403;SDS011;8311;50.158;8.642;2023-02-03T07:37:37;1.80;;;1.08;;
16403;SDS011;8311;50.158;8.642;2023-02-03T07:40:30;2.90;;;1.08;;
16403;SDS011;8311;50.158;8.642;2023-02-03T07:43:23;2.10;;;1.08;;
16403;SDS011;8311;50.158;8.642;2023-02-03T07:46:18;1.88;;;1.10;;
16403;SDS011;8311;50.158;8.642;2023-02-03T07:49:12;3.17;;;1.02;;
16403;SDS011;8311;50.158;8.642;2023-02-03T07:52:06;1.80;;;1.17;;
16403;SDS011;8311;50.158;8.642;2023-02-03T07:55:00;4.68;;;1.40;;
16403;SDS011;8311;50.158;8.642;2023-02-03T07:57:53;2.80;;;1.00;;
16403;SDS011;8311;50.158;8.642;2023-02-03T08:00:46;3.25;;;1.20;;
16403;SDS011;8311;50.158;8.642;2023-02-03T08:03:41;2.90;;;1.25;;
16403;SDS011;8311;50.158;8.642;2023-02-03T08:06:35;3.47;;;1.33;;
16403;SDS011;8311;50.158;8.642;2023-02-03T08:09:28;1.90;;;1.00;;
16403;SDS011;8311;50.158;8.642;2023-02-03T08:12:21;2.97;;;0.88;;
16403;SDS011;8311;50.158;8.642;2023-02-03T08:15:14;2.00;;;0.93;;
16403;SDS011;8311;50.158;8.642;2023-02-03T08:18:07;1.48;;;0.85;;
16403;SDS011;8311;50.158;8.642;2023-02-03T08:21:05;3.83;;;1.38;;
16403;SDS011;8311;50.158;8.642;2023-02-03T08:23:57;3.65;;;1.27;;
16403;SDS011;8311;50.158;8.642;2023-02-03T08:26:51;6.32;;;1.83;;
16403;SDS011;8311;50.158;8.642;2023-02-03T08:29:45;5.43;;;1.70;;
16403;SDS011;8311;50.158;8.642;2023-02-03T08:32:38;11.95;;;1.75;;
16403;SDS011;8311;50.158;8.642;2023-02-03T08:35:31;11.90;;;1.70;;
16403;SDS011;8311;50.158;8.642;2023-02-03T08:38:26;15.63;;;2.80;;
16403;SDS011;8311;50.158;8.642;2023-02-03T08:41:19;17.05;;;2.30;;
16403;SDS011;8311;50.158;8.642;2023-02-03T08:44:12;12.70;;;1.70;;
16403;SDS011;8311;50.158;8.642;2023-02-03T08:47:05;6.07;;;1.80;;
16403;SDS011;8311;50.158;8.642;2023-02-03T08:49:59;9.20;;;2.30;;
16403;SDS011;8311;50.158;8.642;2023-02-03T08:52:52;7.30;;;1.83;;
16403;SDS011;8311;50.158;8.642;2023-02-03T08:55:46;7.35;;;1.40;;
16403;SDS011;8311;50.158;8.642;2023-02-03T08:58:40;8.27;;;1.52;;
16403;SDS011;8311;50.158;8.642;2023-02-03T09:01:33;9.88;;;1.38;;
16403;SDS011;8311;50.158;8.642;2023-02-03T09:04:27;6.07;;;1.70;;
16403;SDS011;8311;50.158;8.642;2023-02-03T09:07:20;10.07;;;1.65;;
16403;SDS011;8311;50.158;8.642;2023-02-03T09:10:12;2.97;;;1.02;;
16403;SDS011;8311;50.158;8.642;2023-02-03T09:13:07;5.00;;;1.10;;
16403;SDS011;8311;50.158;8.642;2023-02-03T09:16:00;5.38;;;1.50;;
16403;SDS011;8311;50.158;8.642;2023-02-03T09:18:53;6.15;;;1.30;;
16403;SDS011;8311;50.158;8.642;2023-02-03T09:21:46;11.27;;;1.42;;
16403;SDS011;8311;50.158;8.642;2023-02-03T09:24:40;2.78;;;1.10;;
16403;SDS011;8311;50.158;8.642;2023-02-03T09:27:33;4.18;;;1.08;;
16403;SDS011;8311;50.158;8.642;2023-02-03T09:30:27;4.10;;;1.13;;
16403;SDS011;8311;50.158;8.642;2023-02-03T09:33:21;4.28;;;1.30;;
16403;SDS011;8311;50.158;8.642;2023-02-03T09:36:14;2.70;;;0.93;;
16403;SDS011;8311;50.158;8.642;2023-02-03T09:39:08;6.38;;;1.40;;
16403;SDS011;8311;50.158;8.642;2023-02-03T09:42:04;2.42;;;1.00;;
16403;SDS011;8311;50.158;8.642;2023-02-03T09:45:07;3.65;;;1.30;;
16403;SDS011;8311;50.158;8.642;2023-02-03T09:48:10;4.03;;;1.00;;
16403;SDS011;8311;50.158;8.642;2023-02-03T09:51:08;3.80;;;1.17;;
16403;SDS011;8311;50.158;8.642;2023-02-03T09:54:12;3.33;;;1.20;;
16403;SDS011;8311;50.158;8.642;2023-02-03T09:57:12;3.05;;;1.35;;
16403;SDS011;8311;50.158;8.642;2023-02-03T10:00:13;7.78;;;1.35;;
16403;SDS011;8311;50.158;8.642;2023-02-03T10:03:15;4.18;;;1.35;;
16403;SDS011;8311;50.158;8.642;2023-02-03T10:06:19;4.68;;;1.10;;
16403;SDS011;8311;50.158;8.642;2023-02-03T10:09:22;4.40;;;0.85;;
16403;SDS011;8311;50.158;8.642;2023-02-03T10:12:39;2.78;;;1.15;;
16403;SDS011;8311;50.158;8.642;2023-02-03T10:15:46;2.17;;;1.00;;
16403;SDS011;8311;50.158;8.642;2023-02-03T10:19:01;2.08;;;0.70;;
16403;SDS011;8311;50.158;8.642;2023-02-03T10:21:59;3.50;;;0.82;;
16403;SDS011;8311;50.158;8.642;2023-02-03T10:24:55;4.18;;;0.88;;
16403;SDS011;8311;50.158;8.642;2023-02-03T10:27:52;2.72;;;0.80;;
16403;SDS011;8311;50.158;8.642;2023-02-03T10:30:51;2.42;;;0.90;;
16403;SDS011;8311;50.158;8.642;2023-02-03T10:33:48;2.40;;;0.90;;
16403;SDS011;8311;50.158;8.642;2023-02-03T10:36:53;2.25;;;1.02;;
16403;SDS011;8311;50.158;8.642;2023-02-03T10:39:48;2.33;;;0.82;;
16403;SDS011;8311;50.158;8.642;2023-02-03T10:42:43;2.47;;;1.00;;
16403;SDS011;8311;50.158;8.642;2023-02-03T10:45:57;3.10;;;1.27;;
16403;SDS011;8311;50.158;8.642;2023-02-03T10:48:51;2.83;;;0.82;;
16403;SDS011;8311;50.158;8.642;2023-02-03T10:51:45;2.47;;;0.88;;
16403;SDS011;8311;50.158;8.642;2023-02-03T10:54:43;1.90;;;0.82;;
16403;SDS011;8311;50.158;8.642;2023-02-03T10:57:36;1.88;;;0.52;;
16403;SDS011;8311;50.158;8.642;2023-02-03T11:00:31;1.60;;;0.70;;
16403;SDS011;8311;50.158;8.642;2023-02-03T11:03:27;1.40;;;0.60;;
16403;SDS011;8311;50.158;8.642;2023-02-03T11:06:20;2.35;;;0.88;;
16403;SDS011;8311;50.158;8.642;2023-02-03T11:09:20;3.65;;;0.82;;
16403;SDS011;8311;50.158;8.642;2023-02-03T11:12:20;3.38;;;0.90;;
16403;SDS011;8311;50.158;8.642;2023-02-03T11:15:13;2.55;;;0.90;;
16403;SDS011;8311;50.158;8.642;2023-02-03T11:21:39;4.15;;;1.17;;
16403;SDS011;8311;50.158;8.642;2023-02-03T11:24:37;4.13;;;0.70;;
16403;SDS011;8311;50.158;8.642;2023-02-03T11:27:34;4.75;;;0.80;;
16403;SDS011;8311;50.158;8.642;2023-02-03T11:30:27;2.10;;;0.90;;
16403;SDS011;8311;50.158;8.642;2023-02-03T11:33:21;3.95;;;0.85;;
16403;SDS011;8311;50.158;8.642;2023-02-03T11:36:17;4.40;;;1.10;;
16403;SDS011;8311;50.158;8.642;2023-02-03T11:39:23;1.75;;;0.73;;
16403;SDS011;8311;50.158;8.642;2023-02-03T11:42:21;1.88;;;0.80;;
16403;SDS011;8311;50.158;8.642;2023-02-03T11:45:23;2.47;;;0.90;;
16403;SDS011;8311;50.158;8.642;2023-02-03T11:48:20;1.45;;;0.80;;
16403;SDS011;8311;50.158;8.642;2023-02-03T11:51:21;3.63;;;0.80;;
16403;SDS011;8311;50.158;8.642;2023-02-03T11:54:26;2.13;;;0.60;;
16403;SDS011;8311;50.158;8.642;2023-02-03T11:57:31;4.10;;;1.17;;
16403;SDS011;8311;50.158;8.642;2023-02-03T12:00:35;2.15;;;0.75;;
16403;SDS011;8311;50.158;8.642;2023-02-03T12:03:37;1.23;;;0.70;;
16403;SDS011;8311;50.158;8.642;2023-02-03T12:06:45;2.15;;;0.57;;
16403;SDS011;8311;50.158;8.642;2023-02-03T12:09:55;2.70;;;0.70;;
16403;SDS011;8311;50.158;8.642;2023-02-03T12:12:56;1.40;;;0.57;;
16403;SDS011;8311;50.158;8.642;2023-02-03T12:16:02;1.85;;;0.88;;
16403;SDS011;8311;50.158;8.642;2023-02-03T12:19:09;1.65;;;0.80;;
16403;SDS011;8311;50.158;8.642;2023-02-03T12:22:10;1.77;;;0.70;;
16403;SDS011;8311;50.158;8.642;2023-02-03T12:25:20;2.08;;;0.65;;
16403;SDS011;8311;50.158;8.642;2023-02-03T12:28:32;4.03;;;1.20;;
16403;SDS011;8311;50.158;8.642;2023-02-03T12:31:41;0.68;;;0.57;;
16403;SDS011;8311;50.158;8.642;2023-02-03T12:34:38;0.45;;;0.45;;
16403;SDS011;8311;50.158;8.642;2023-02-03T12:37:39;1.20;;;0.70;;
16403;SDS011;8311;50.158;8.642;2023-02-03T12:40:38;2.15;;;0.88;;
16403;SDS011;8311;50.158;8.642;2023-02-03T12:43:35;3.28;;;0.70;;
16403;SDS011;8311;50.158;8.642;2023-02-03T12:46:32;7.57;;;0.80;;
16403;SDS011;8311;50.158;8.642;2023-02-03T12:49:32;1.88;;;0.60;;
16403;SDS011;8311;50.158;8.642;2023-02-03T12:52:31;1.48;;;0.70;;
16403;SDS011;8311;50.158;8.642;2023-02-03T12:55:31;1.13;;;0.75;;
16403;SDS011;8311;50.158;8.642;2023-02-03T12:58:28;1.58;;;0.60;;
16403;SDS011;8311;50.158;8.642;2023-02-03T13:01:26;2.17;;;0.80;;
16403;SDS011;8311;50.158;8.642;2023-02-03T13:04:26;1.58;;;0.68;;
16403;SDS011;8311;50.158;8.642;2023-02-03T13:07:28;1.48;;;0.70;;
16403;SDS011;8311;50.158;8.642;2023-02-03T13:10:30;1.38;;;0.57;;
16403;SDS011;8311;50.158;8.642;2023-02-03T13:13:30;1.48;;;0.70;;
16403;SDS011;8311;50.158;8.642;2023-02-03T13:16:28;0.93;;;0.70;;
16403;SDS011;8311;50.158;8.642;2023-02-03T13:19:28;2.47;;;0.73;;
16403;SDS011;8311;50.158;8.642;2023-02-03T13:22:32;1.13;;;0.70;;
16403;SDS011;8311;50.158;8.642;2023-02-03T13:25:26;2.75;;;0.70;;
16403;SDS011;8311;50.158;8.642;2023-02-03T13:28:31;2.88;;;0.75;;
16403;SDS011;8311;50.158;8.642;2023-02-03T13:31:37;1.17;;;0.50;;
16403;SDS011;8311;50.158;8.642;2023-02-03T13:34:48;0.82;;;0.50;;
16403;SDS011;8311;50.158;8.642;2023-02-03T13:38:03;0.50;;;0.50;;
16403;SDS011;8311;50.158;8.642;2023-02-03T13:41:06;1.00;;;0.70;;
16403;SDS011;8311;50.158;8.642;2023-02-03T13:44:04;1.70;;;0.70;;
16403;SDS011;8311;50.158;8.642;2023-02-03T13:47:03;0.82;;;0.70;;
16403;SDS011;8311;50.158;8.642;2023-02-03T13:49:58;1.10;;;0.50;;
16403;SDS011;8311;50.158;8.642;2023-02-03T13:52:54;0.55;;;0.40;;
16403;SDS011;8311;50.158;8.642;2023-02-03T13:55:53;1.00;;;0.52;;
16403;SDS011;8311;50.158;8.642;2023-02-03T13:58:58;1.15;;;0.57;;
16403;SDS011;8311;50.158;8.642;2023-02-03T14:01:56;1.13;;;0.50;;
16403;SDS011;8311;50.158;8.642;2023-02-03T14:05:39;3.03;;;0.68;;
16403;SDS011;8311;50.158;8.642;2023-02-03T14:08:41;2.00;;;0.65;;
16403;SDS011;8311;50.158;8.642;2023-02-03T14:11:44;1.27;;;0.57;;
16403;SDS011;8311;50.158;8.642;2023-02-03T14:14:39;1.17;;;0.68;;
16403;SDS011;8311;50.158;8.642;2023-02-03T14:17:56;1.05;;;0.65;;
16403;SDS011;8311;50.158;8.642;2023-02-03T14:20:56;1.77;;;0.55;;
16403;SDS011;8311;50.158;8.642;2023-02-03T14:24:09;2.47;;;0.63;;
16403;SDS011;8311;50.158;8.642;2023-02-03T14:27:14;1.08;;;0.70;;
16403;SDS011;8311;50.158;8.642;2023-02-03T14:30:11;1.98;;;0.70;;
16403;SDS011;8311;50.158;8.642;2023-02-03T14:33:07;1.15;;;0.60;;
16403;SDS011;8311;50.158;8.642;2023-02-03T14:36:00;0.40;;;0.40;;
16403;SDS011;8311;50.158;8.642;2023-02-03T14:38:53;0.90;;;0.60;;
16403;SDS011;8311;50.158;8.642;2023-02-03T14:41:49;2.40;;;0.85;;
16403;SDS011;8311;50.158;8.642;2023-02-03T14:44:55;4.63;;;0.65;;
16403;SDS011;8311;50.158;8.642;2023-02-03T14:47:59;0.77;;;0.65;;
16403;SDS011;8311;50.158;8.642;2023-02-03T14:51:07;1.85;;;0.90;;
16403;SDS011;8311;50.158;8.642;2023-02-03T14:54:11;1.70;;;0.85;;
16403;SDS011;8311;50.158;8.642;2023-02-03T14:57:18;1.67;;;0.70;;
16403;SDS011;8311;50.158;8.642;2023-02-03T15:00:28;4.88;;;0.73;;
16403;SDS011;8311;50.158;8.642;2023-02-03T15:03:25;2.25;;;0.75;;
16403;SDS011;8311;50.158;8.642;2023-02-03T15:06:35;2.22;;;0.80;;
16403;SDS011;8311;50.158;8.642;2023-02-03T15:09:31;2.65;;;0.70;;
16403;SDS011;8311;50.158;8.642;2023-02-03T15:12:33;1.73;;;0.40;;
16403;SDS011;8311;50.158;8.642;2023-02-03T15:15:31;1.38;;;0.60;;
16403;SDS011;8311;50.158;8.642;2023-02-03T15:18:30;1.05;;;0.52;;
16403;SDS011;8311;50.158;8.642;2023-02-03T15:21:26;3.20;;;0.73;;
16403;SDS011;8311;50.158;8.642;2023-02-03T15:24:20;2.53;;;0.70;;
16403;SDS011;8311;50.158;8.642;2023-02-03T15:27:21;1.73;;;0.70;;
16403;SDS011;8311;50.158;8.642;2023-02-03T15:30:17;2.42;;;0.88;;
16403;SDS011;8311;50.158;8.642;2023-02-03T15:33:17;1.08;;;0.50;;
16403;SDS011;8311;50.158;8.642;2023-02-03T15:36:14;0.55;;;0.47;;
16403;SDS011;8311;50.158;8.642;2023-02-03T15:39:17;1.77;;;0.77;;
16403;SDS011;8311;50.158;8.642;2023-02-03T15:42:30;2.10;;;0.40;;
16403;SDS011;8311;50.158;8.642;2023-02-03T15:45:29;1.55;;;0.85;;
16403;SDS011;8311;50.158;8.642;2023-02-03T15:48:29;0.60;;;0.52;;
16403;SDS011;8311;50.158;8.642;2023-02-03T15:51:29;3.10;;;0.60;;
16403;SDS011;8311;50.158;8.642;2023-02-03T15:54:26;1.40;;;0.60;;
16403;SDS011;8311;50.158;8.642;2023-02-03T15:57:31;2.97;;;0.70;;
16403;SDS011;8311;50.158;8.642;2023-02-03T16:00:29;0.55;;;0.45;;
16403;SDS011;8311;50.158;8.642;2023-02-03T16:03:27;0.52;;;0.52;;
16403;SDS011;8311;50.158;8.642;2023-02-03T16:06:29;1.63;;;0.60;;
16403;SDS011;8311;50.158;8.642;2023-02-03T16:09:29;1.23;;;0.70;;
16403;SDS011;8311;50.158;8.642;2023-02-03T16:12:23;2.15;;;0.60;;
16403;SDS011;8311;50.158;8.642;2023-02-03T16:15:22;0.95;;;0.70;;
16403;SDS011;8311;50.158;8.642;2023-02-03T16:18:16;2.20;;;0.60;;
16403;SDS011;8311;50.158;8.642;2023-02-03T16:21:21;3.13;;;0.77;;
16403;SDS011;8311;50.158;8.642;2023-02-03T16:24:36;1.35;;;0.65;;
16403;SDS011;8311;50.158;8.642;2023-02-03T16:27:38;2.00;;;0.73;;
16403;SDS011;8311;50.158;8.642;2023-02-03T16:30:32;3.35;;;0.73;;
16403;SDS011;8311;50.158;8.642;2023-02-03T16:33:44;1.25;;;0.68;;
16403;SDS011;8311;50.158;8.642;2023-02-03T16:36:56;1.58;;;0.82;;
16403;SDS011;8311;50.158;8.642;2023-02-03T16:40:09;0.93;;;0.60;;
16403;SDS011;8311;50.158;8.642;2023-02-03T16:43:20;0.80;;;0.40;;
16403;SDS011;8311;50.158;8.642;2023-02-03T16:46:34;1.92;;;0.68;;
16403;SDS011;8311;50.158;8.642;2023-02-03T16:49:47;0.77;;;0.60;;
16403;SDS011;8311;50.158;8.642;2023-02-03T16:53:03;1.80;;;0.68;;
16403;SDS011;8311;50.158;8.642;2023-02-03T16:55:59;2.85;;;0.82;;
16403;SDS011;8311;50.158;8.642;2023-02-03T16:58:58;1.40;;;0.75;;
16403;SDS011;8311;50.158;8.642;2023-02-03T17:01:53;1.20;;;0.55;;
16403;SDS011;8311;50.158;8.642;2023-02-03T17:04:50;1.33;;;0.60;;
16403;SDS011;8311;50.158;8.642;2023-02-03T17:07:47;0.65;;;0.50;;
16403;SDS011;8311;50.158;8.642;2023-02-03T17:10:48;3.80;;;0.80;;
16403;SDS011;8311;50.158;8.642;2023-02-03T17:13:42;1.48;;;0.60;;
16403;SDS011;8311;50.158;8.642;2023-02-03T17:16:38;1.75;;;0.60;;
16403;SDS011;8311;50.158;8.642;2023-02-03T17:19:33;0.65;;;0.45;;
16403;SDS011;8311;50.158;8.642;2023-02-03T17:22:29;3.08;;;0.82;;
16403;SDS011;8311;50.158;8.642;2023-02-03T17:25:23;0.73;;;0.50;;
16403;SDS011;8311;50.158;8.642;2023-02-03T17:28:18;1.42;;;0.60;;
16403;SDS011;8311;50.158;8.642;2023-02-03T17:31:13;4.03;;;0.90;;
16403;SDS011;8311;50.158;8.642;2023-02-03T17:34:07;6.25;;;0.80;;
16403;SDS011;8311;50.158;8.642;2023-02-03T17:37:00;4.80;;;0.80;;
16403;SDS011;8311;50.158;8.642;2023-02-03T17:39:53;1.42;;;0.70;;
16403;SDS011;8311;50.158;8.642;2023-02-03T17:43:04;5.07;;;0.70;;
16403;SDS011;8311;50.158;8.642;2023-02-03T17:46:18;0.70;;;0.50;;
16403;SDS011;8311;50.158;8.642;2023-02-03T17:49:29;1.10;;;0.65;;
16403;SDS011;8311;50.158;8.642;2023-02-03T17:52:40;1.70;;;0.85;;
16403;SDS011;8311;50.158;8.642;2023-02-03T17:55:51;1.45;;;0.70;;
16403;SDS011;8311;50.158;8.642;2023-02-03T17:58:45;3.35;;;0.80;;
16403;SDS011;8311;50.158;8.642;2023-02-03T18:01:40;1.20;;;0.63;;
16403;SDS011;8311;50.158;8.642;2023-02-03T18:04:33;0.98;;;0.50;;
16403;SDS011;8311;50.158;8.642;2023-02-03T18:07:26;1.50;;;0.68;;
16403;SDS011;8311;50.158;8.642;2023-02-03T18:10:19;1.02;;;0.60;;
16403;SDS011;8311;50.158;8.642;2023-02-03T18:13:13;1.42;;;0.63;;
16403;SDS011;8311;50.158;8.642;2023-02-03T18:16:06;1.27;;;0.60;;